createdAt,value
2023-02-07T00:01:30.465Z,100674.34
2023-02-07T00:03:58.815Z,100679.75
2023-02-07T00:06:27.651Z,100686.16
2023-02-07T00:08:55.272Z,100688.19
2023-02-07T00:11:23.386Z,100693.75
2023-02-07T00:13:53.304Z,100702.69
2023-02-07T00:16:22.385Z,100701.84
2023-02-07T00:18:49.309Z,100684.88
2023-02-07T00:21:18.120Z,100687.75
2023-02-07T00:23:45.891Z,100689.59
2023-02-07T00:26:17.410Z,100691.44
2023-02-07T00:28:45.764Z,100691.66
2023-02-07T00:31:15.310Z,100695.16
2023-02-07T00:33:44.967Z,100688.09
2023-02-07T00:36:13.901Z,100690.97
2023-02-07T00:38:40.952Z,100693.66
2023-02-07T00:41:08.201Z,100678.53
2023-02-07T00:43:35.653Z,100676.88
2023-02-07T00:46:04.218Z,100672.31
2023-02-07T00:48:31.641Z,100669.78
2023-02-07T00:51:00.755Z,100668.97
2023-02-07T00:53:29.826Z,100666.47
2023-02-07T00:55:56.927Z,100670.19
2023-02-07T00:58:24.006Z,100671.38
2023-02-07T01:00:51.377Z,100671.38
2023-02-07T01:03:18.633Z,100670.38
2023-02-07T01:05:45.741Z,100670.53
2023-02-07T01:08:14.662Z,100654.38
2023-02-07T01:10:43.304Z,100658.09
2023-02-07T01:13:10.375Z,100654.53
2023-02-07T01:15:38.763Z,100665.50
2023-02-07T01:18:06.997Z,100660.13
2023-02-07T01:20:34.279Z,100649.53
2023-02-07T01:23:01.249Z,100641.44
2023-02-07T01:25:29.517Z,100635.25
2023-02-07T01:27:57.040Z,100628.16
2023-02-07T01:30:24.059Z,100622.78
2023-02-07T01:32:51.505Z,100619.25
2023-02-07T01:35:18.466Z,100599.56
2023-02-07T01:37:45.255Z,100601.41
2023-02-07T01:40:13.132Z,100607.81
2023-02-07T01:42:41.403Z,100614.06
2023-02-07T01:45:22.345Z,100609.88
2023-02-07T01:47:49.470Z,100620.66
2023-02-07T01:50:17.694Z,100616.09
2023-02-07T01:52:45.066Z,100624.34
2023-02-07T01:55:15.390Z,100627.88
2023-02-07T01:57:44.800Z,100629.09
2023-02-07T02:00:14.113Z,100630.13
2023-02-07T02:02:44.854Z,100632.16
2023-02-07T02:05:14.341Z,100628.44
2023-02-07T02:07:41.861Z,100632.16
2023-02-07T02:11:20.398Z,100621.38
2023-02-07T02:13:56.099Z,100627.34
2023-02-07T02:16:31.366Z,100629.19
2023-02-07T02:19:24.582Z,100642.66
2023-02-07T02:22:28.381Z,100641.00
2023-02-07T02:25:40.418Z,100643.69
2023-02-07T02:28:26.369Z,100638.66
2023-02-07T02:31:27.827Z,100646.72
2023-02-07T02:34:00.364Z,100648.56
2023-02-07T02:36:39.635Z,100641.53
2023-02-07T02:39:13.263Z,100634.13
2023-02-07T02:41:48.121Z,100643.19
2023-02-07T02:44:20.611Z,100637.81
2023-02-07T02:46:48.826Z,100638.84
2023-02-07T02:49:19.312Z,100640.72
2023-02-07T02:51:49.753Z,100647.75
2023-02-07T02:54:31.583Z,100639.69
2023-02-07T02:57:41.411Z,100647.94
2023-02-07T03:00:24.085Z,100648.13
2023-02-07T03:03:12.841Z,100648.13
2023-02-07T03:05:49.333Z,100654.53
2023-02-07T03:08:30.401Z,100654.72
2023-02-07T03:11:04.016Z,100644.78
2023-02-07T03:13:36.234Z,100644.78
2023-02-07T03:16:11.321Z,100650.19
2023-02-07T03:18:47.746Z,100656.56
2023-02-07T03:21:22.977Z,100649.34
2023-02-07T03:23:52.901Z,100655.56
2023-02-07T03:26:23.033Z,100653.06
2023-02-07T03:28:55.131Z,100652.03
2023-02-07T03:31:25.414Z,100653.06
2023-02-07T03:33:59.138Z,100641.44
2023-02-07T03:36:32.016Z,100638.75
2023-02-07T03:38:59.308Z,100645.16
2023-02-07T03:41:33.036Z,100649.69
2023-02-07T03:44:06.864Z,100642.66
2023-02-07T03:46:36.850Z,100643.50
2023-02-07T03:49:04.202Z,100633.09
2023-02-07T03:51:32.483Z,100642.66
2023-02-07T03:53:59.403Z,100638.47
2023-02-07T03:56:26.492Z,100638.28
2023-02-07T03:58:53.629Z,100634.75
2023-02-07T04:01:20.542Z,100636.41
2023-02-07T04:03:47.417Z,100638.47
2023-02-07T04:06:14.514Z,100642.19
2023-02-07T04:08:42.997Z,100644.88
2023-02-07T04:11:09.856Z,100640.50
2023-02-07T04:13:36.697Z,100651.25
2023-02-07T04:16:05.433Z,100650.44
2023-02-07T04:18:32.414Z,100646.72
2023-02-07T04:21:02.888Z,100660.34
2023-02-07T04:23:29.800Z,100664.91
2023-02-07T04:25:58.097Z,100658.69
2023-02-07T04:28:25.364Z,100667.59
2023-02-07T04:30:52.751Z,100676.50
2023-02-07T04:33:21.256Z,100669.47
2023-02-07T04:35:54.377Z,100683.94
2023-02-07T04:38:21.222Z,100676.88
2023-02-07T04:40:48.049Z,100677.72
2023-02-07T04:43:16.271Z,100675.19
2023-02-07T04:45:43.101Z,100681.44
2023-02-07T04:48:09.938Z,100671.47
2023-02-07T04:50:36.770Z,100674.34
2023-02-07T04:53:03.671Z,100673.53
2023-02-07T04:55:30.517Z,100673.53
2023-02-07T04:57:57.361Z,100675.38
2023-02-07T05:00:25.686Z,100670.84
2023-02-07T05:02:52.541Z,100673.53
2023-02-07T05:05:19.339Z,100672.88
2023-02-07T05:07:46.188Z,100675.38
2023-02-07T05:10:13.091Z,100674.34
2023-02-07T05:12:39.983Z,100676.41
2023-02-07T05:15:07.342Z,100671.88
2023-02-07T05:17:35.789Z,100673.03
2023-02-07T05:20:02.696Z,100675.72
2023-02-07T05:22:29.526Z,100677.59
2023-02-07T05:24:56.489Z,100681.31
2023-02-07T05:27:23.386Z,100693.75
2023-02-07T05:29:50.252Z,100699.94
2023-02-07T05:32:36.380Z,100705.53
2023-02-07T05:35:05.169Z,100706.53
2023-02-07T05:37:31.971Z,100700.81
2023-02-07T05:39:58.856Z,100704.97
2023-02-07T05:42:25.715Z,100705.09
2023-02-07T05:44:52.555Z,100706.41
2023-02-07T05:47:19.367Z,100704.38
2023-02-07T05:49:46.257Z,100706.03
2023-02-07T05:52:14.664Z,100699.09
2023-02-07T05:54:41.645Z,100697.53
2023-02-07T05:57:08.636Z,100694.09
2023-02-07T05:59:35.487Z,100695.22
2023-02-07T06:02:02.308Z,100691.41
2023-02-07T06:04:29.146Z,100696.91
2023-02-07T06:06:55.995Z,100701.38
2023-02-07T06:09:24.211Z,100704.00
2023-02-07T06:11:51.059Z,100696.63
2023-02-07T06:14:17.849Z,100694.69
2023-02-07T06:16:44.684Z,100705.38
2023-02-07T06:19:13.042Z,100692.81
2023-02-07T06:21:46.449Z,100700.13
2023-02-07T06:24:14.070Z,100706.25
2023-02-07T06:26:42.285Z,100702.63
2023-02-07T06:29:09.496Z,100713.50
2023-02-07T06:31:36.332Z,100719.81
2023-02-07T06:34:03.142Z,100707.63
2023-02-07T06:36:29.979Z,100719.88
2023-02-07T06:38:57.629Z,100724.06
2023-02-07T06:41:24.705Z,100736.53
2023-02-07T06:43:52.872Z,100746.28
2023-02-07T06:46:19.993Z,100745.63
2023-02-07T06:48:46.864Z,100748.16
2023-02-07T06:51:13.730Z,100753.72
2023-02-07T06:53:40.590Z,100741.47
2023-02-07T06:56:08.041Z,100739.59
2023-02-07T06:58:34.892Z,100752.25
2023-02-07T07:01:04.029Z,100747.03
2023-02-07T07:03:30.883Z,100752.63
2023-02-07T07:05:58.347Z,100749.28
2023-02-07T07:08:26.061Z,100758.41
2023-02-07T07:10:53.530Z,100758.59
2023-02-07T07:13:20.981Z,100759.63
2023-02-07T07:15:47.981Z,100758.13
2023-02-07T07:18:16.239Z,100748.56
2023-02-07T07:20:43.103Z,100754.13
2023-02-07T07:23:09.965Z,100757.22
2023-02-07T07:25:37.033Z,100755.09
2023-02-07T07:28:04.579Z,100760.00
2023-02-07T07:30:31.529Z,100762.13
2023-02-07T07:32:58.339Z,100759.16
2023-02-07T07:35:26.622Z,100768.44
2023-02-07T07:37:53.442Z,100774.19
2023-02-07T07:40:20.498Z,100782.25
2023-02-07T07:42:47.366Z,100789.25
2023-02-07T07:45:34.508Z,100790.69
2023-02-07T07:48:01.413Z,100797.72
2023-02-07T07:50:29.604Z,100803.63
2023-02-07T07:52:56.451Z,100806.38
2023-02-07T07:55:23.344Z,100810.16
2023-02-07T07:57:50.162Z,100807.50
2023-02-07T08:00:17.692Z,100812.53
2023-02-07T08:02:44.622Z,100821.09
2023-02-07T08:05:13.697Z,100824.47
2023-02-07T08:07:42.467Z,100834.03
2023-02-07T08:10:10.323Z,100826.19
2023-02-07T08:12:37.238Z,100830.16
2023-02-07T08:15:04.636Z,100826.88
2023-02-07T08:17:31.568Z,100831.69
2023-02-07T08:19:58.423Z,100829.44
2023-02-07T08:22:25.410Z,100826.13
2023-02-07T08:24:53.591Z,100832.19
2023-02-07T08:27:20.478Z,100842.56
2023-02-07T08:29:47.318Z,100841.38
2023-02-07T08:32:14.415Z,100826.44
2023-02-07T08:34:41.195Z,100829.75
2023-02-07T08:37:09.046Z,100841.00
2023-02-07T08:39:36.351Z,100836.03
2023-02-07T08:42:05.556Z,100841.06
2023-02-07T08:44:32.566Z,100843.53
2023-02-07T08:46:59.848Z,100849.41
2023-02-07T08:49:26.735Z,100844.63
2023-02-07T08:51:53.687Z,100850.69
2023-02-07T08:54:20.482Z,100840.31
2023-02-07T08:56:47.309Z,100839.94
2023-02-07T08:59:15.463Z,100831.63
2023-02-07T09:01:42.296Z,100836.66
2023-02-07T09:04:11.435Z,100831.66
2023-02-07T09:06:38.993Z,100836.03
2023-02-07T09:09:06.099Z,100837.50
2023-02-07T09:11:33.487Z,100836.06
2023-02-07T09:14:01.788Z,100839.22
2023-02-07T09:16:30.551Z,100836.31
2023-02-07T09:18:57.458Z,100827.75
2023-02-07T09:21:24.376Z,100833.31
2023-02-07T09:23:51.235Z,100832.41
2023-02-07T09:26:20.013Z,100833.38
2023-02-07T09:28:47.096Z,100830.00
2023-02-07T09:31:16.423Z,100831.84
2023-02-07T09:33:44.898Z,100830.09
2023-02-07T09:36:20.206Z,100837.34
2023-02-07T09:38:47.875Z,100841.88
2023-02-07T09:41:27.315Z,100847.41
2023-02-07T09:44:04.032Z,100851.06
2023-02-07T09:46:36.358Z,100855.19
2023-02-07T09:49:10.085Z,100856.81
2023-02-07T09:51:37.472Z,100861.13
2023-02-07T09:54:07.447Z,100866.03
2023-02-07T09:56:36.444Z,100876.59
2023-02-07T09:59:13.826Z,100886.13
2023-02-07T10:01:44.358Z,100887.72
2023-02-07T10:04:30.556Z,100888.94
2023-02-07T10:06:59.751Z,100878.91
2023-02-07T10:09:30.126Z,100880.34
2023-02-07T10:12:05.311Z,100882.75
2023-02-07T10:14:46.084Z,100884.56
2023-02-07T10:17:32.365Z,100893.66
2023-02-07T10:20:22.729Z,100879.91
2023-02-07T10:22:59.026Z,100877.78
2023-02-07T10:25:38.882Z,100868.19
2023-02-07T10:28:36.652Z,100875.63
2023-02-07T10:31:12.064Z,100864.38
2023-02-07T10:33:43.871Z,100877.38
2023-02-07T10:36:15.387Z,100874.06
2023-02-07T10:38:48.844Z,100879.66
2023-02-07T10:41:22.082Z,100879.66
2023-02-07T10:43:49.128Z,100875.06
2023-02-07T10:46:20.533Z,100879.16
2023-02-07T10:48:48.525Z,100880.56
2023-02-07T10:51:24.962Z,100872.88
2023-02-07T10:54:04.311Z,100878.28
2023-02-07T10:56:33.968Z,100877.41
2023-02-07T10:59:00.925Z,100879.47
2023-02-07T11:01:30.646Z,100878.63
2023-02-07T11:03:58.049Z,100880.66
2023-02-07T11:06:28.163Z,100874.28
2023-02-07T11:09:23.516Z,100872.38
2023-02-07T11:11:51.733Z,100868.22
2023-02-07T11:14:27.973Z,100863.22
2023-02-07T11:16:56.347Z,100866.66
2023-02-07T11:19:25.836Z,100853.53
2023-02-07T11:22:11.277Z,100851.22
2023-02-07T11:24:38.616Z,100849.94
2023-02-07T11:27:12.635Z,100846.75
2023-02-07T11:29:47.614Z,100846.31
2023-02-07T11:32:15.813Z,100847.50
2023-02-07T11:34:46.610Z,100848.91
2023-02-07T11:37:28.748Z,100853.63
2023-02-07T11:39:57.136Z,100852.16
2023-02-07T11:42:26.382Z,100858.56
2023-02-07T11:44:53.491Z,100855.19
2023-02-07T11:47:24.943Z,100858.06
2023-02-07T11:49:58.139Z,100852.88
2023-02-07T11:52:27.242Z,100859.66
2023-02-07T11:54:58.404Z,100857.16
2023-02-07T11:57:30.024Z,100847.56
2023-02-07T12:00:06.909Z,100848.22
2023-02-07T12:02:48.250Z,100845.06
2023-02-07T12:05:20.944Z,100840.03
2023-02-07T12:07:52.120Z,100833.16
2023-02-07T12:10:24.096Z,100836.66
2023-02-07T12:12:56.560Z,100829.59
2023-02-07T12:15:28.638Z,100835.38
2023-02-07T12:18:02.566Z,100829.34
2023-02-07T12:20:33.521Z,100833.88
2023-02-07T12:23:35.607Z,100834.09
2023-02-07T12:26:02.225Z,100839.00
2023-02-07T12:28:33.524Z,100833.97
2023-02-07T12:31:11.750Z,100823.41
2023-02-07T12:33:48.861Z,100826.44
2023-02-07T12:36:22.943Z,100829.31
2023-02-07T12:38:56.835Z,100827.25
2023-02-07T12:41:29.478Z,100821.53
2023-02-07T12:44:05.515Z,100812.41
2023-02-07T12:46:41.851Z,100807.88
2023-02-07T12:49:28.591Z,100806.84
2023-02-07T12:52:07.949Z,100807.69
2023-02-07T12:54:47.764Z,100810.38
2023-02-07T12:57:21.238Z,100800.44
2023-02-07T13:00:04.040Z,100806.66
2023-02-07T13:02:40.571Z,100803.97
2023-02-07T13:05:38.766Z,100802.09
2023-02-07T13:08:17.860Z,100811.22
2023-02-07T13:10:56.557Z,100802.94
2023-02-07T13:13:28.190Z,100813.53
2023-02-07T13:16:01.938Z,100818.09
2023-02-07T13:18:40.734Z,100822.47
2023-02-07T13:21:17.929Z,100829.50
2023-02-07T13:23:48.006Z,100829.50
2023-02-07T13:26:20.079Z,100829.50
2023-02-07T13:28:52.178Z,100831.56
2023-02-07T13:31:21.153Z,100825.78
2023-02-07T13:33:50.142Z,100830.53
2023-02-07T13:36:27.468Z,100829.50
2023-02-07T13:39:07.988Z,100819.75
2023-02-07T13:41:46.069Z,100823.50
2023-02-07T13:44:22.683Z,100822.47
2023-02-07T13:47:24.125Z,100821.25
2023-02-07T13:49:58.634Z,100834.91
2023-02-07T13:52:33.415Z,100826.00
2023-02-07T13:55:11.206Z,100831.56
2023-02-07T13:58:01.137Z,100834.09
2023-02-07T14:00:30.259Z,100824.13
2023-02-07T14:03:00.202Z,100832.22
2023-02-07T14:05:30.763Z,100834.91
2023-02-07T14:08:01.319Z,100833.88
2023-02-07T14:10:45.849Z,100836.56
2023-02-07T14:13:33.229Z,100832.03
2023-02-07T14:16:07.662Z,100858.97
2023-02-07T14:18:49.733Z,100845.69
2023-02-07T14:21:41.705Z,100835.28
2023-02-07T14:24:34.504Z,100841.88
2023-02-07T14:27:25.346Z,100840.19
2023-02-07T14:30:21.417Z,100843.56
2023-02-07T14:33:13.622Z,100844.56
2023-02-07T14:36:03.167Z,100846.25
2023-02-07T14:38:33.844Z,100847.94
2023-02-07T14:41:10.966Z,100838.19
2023-02-07T14:43:56.801Z,100849.78
2023-02-07T14:46:37.761Z,100845.59
2023-02-07T14:49:08.144Z,100843.94
2023-02-07T14:51:44.435Z,100842.25
2023-02-07T14:54:18.203Z,100831.94
2023-02-07T14:56:51.161Z,100835.28
2023-02-07T14:59:27.048Z,100839.84
2023-02-07T15:01:55.390Z,100837.16
2023-02-07T15:04:22.317Z,100830.91
2023-02-07T15:06:49.393Z,100819.94
2023-02-07T15:09:24.843Z,100818.28
2023-02-07T15:11:59.838Z,100825.53
2023-02-07T15:14:34.568Z,100832.38
2023-02-07T15:17:04.773Z,100831.41
2023-02-07T15:19:34.513Z,100832.22
2023-02-07T15:22:02.389Z,100831.19
2023-02-07T15:24:39.810Z,100831.19
2023-02-07T15:27:21.066Z,100832.88
2023-02-07T15:29:55.026Z,100818.38
2023-02-07T15:32:25.213Z,100833.50
2023-02-07T15:34:52.170Z,100835.38
2023-02-07T15:37:21.400Z,100828.78
2023-02-07T15:39:51.970Z,100814.66
2023-02-07T15:42:21.038Z,100819.00
2023-02-07T15:44:50.084Z,100811.78
2023-02-07T15:47:36.164Z,100818.19
2023-02-07T15:50:07.875Z,100820.03
2023-02-07T15:52:38.928Z,100823.75
2023-02-07T15:55:17.729Z,100820.63
2023-02-07T15:57:45.441Z,100822.28
2023-02-07T16:00:17.951Z,100832.03
2023-02-07T16:02:55.729Z,100832.38
2023-02-07T16:05:26.643Z,100824.50
2023-02-07T16:07:54.337Z,100831.56
2023-02-07T16:10:33.257Z,100827.19
2023-02-07T16:13:00.887Z,100828.22
2023-02-07T16:15:29.903Z,100834.44
2023-02-07T16:17:59.023Z,100822.81
2023-02-07T16:20:27.674Z,100820.97
2023-02-07T16:22:57.866Z,100826.19
2023-02-07T16:25:29.504Z,100832.78
2023-02-07T16:27:56.896Z,100842.03
2023-02-07T16:30:30.158Z,100840.75
2023-02-07T16:32:58.495Z,100843.81
2023-02-07T16:35:26.897Z,100850.22
2023-02-07T16:37:54.698Z,100848.72
2023-02-07T16:40:26.669Z,100856.63
2023-02-07T16:42:54.238Z,100853.94
2023-02-07T16:45:23.629Z,100856.63
2023-02-07T16:47:50.551Z,100861.31
2023-02-07T16:50:20.739Z,100856.38
2023-02-07T16:52:49.458Z,100866.44
2023-02-07T16:55:16.969Z,100871.06
2023-02-07T16:57:45.310Z,100861.41
2023-02-07T17:00:15.620Z,100867.75
2023-02-07T17:02:43.320Z,100862.63
2023-02-07T17:05:10.309Z,100870.66
2023-02-07T17:07:38.624Z,100875.28
2023-02-07T17:10:19.241Z,100876.22
2023-02-07T17:12:46.222Z,100877.34
2023-02-07T17:15:13.148Z,100877.44
2023-02-07T17:17:40.095Z,100879.84
2023-02-07T17:20:20.302Z,100873.50
2023-02-07T17:22:48.926Z,100884.84
2023-02-07T17:25:17.153Z,100878.31
2023-02-07T17:27:44.092Z,100880.28
2023-02-07T17:30:16.690Z,100880.56
2023-02-07T17:32:43.994Z,100877.69
2023-02-07T17:35:10.863Z,100878.13
2023-02-07T17:37:38.105Z,100883.97
2023-02-07T17:40:26.083Z,100881.34
2023-02-07T17:42:53.030Z,100887.03
2023-02-07T17:45:20.342Z,100887.28
2023-02-07T17:47:47.296Z,100889.78
2023-02-07T17:50:18.055Z,100888.56
2023-02-07T17:52:45.163Z,100890.91
2023-02-07T17:55:13.804Z,100886.13
2023-02-07T17:57:41.577Z,100888.19
2023-02-07T18:00:16.213Z,100897.09
2023-02-07T18:02:44.025Z,100887.97
2023-02-07T18:05:12.375Z,100891.53
2023-02-07T18:07:39.357Z,100895.06
2023-02-07T18:10:09.664Z,100898.41
2023-02-07T18:12:38.016Z,100898.22
2023-02-07T18:15:08.519Z,100898.22
2023-02-07T18:17:36.598Z,100901.34
2023-02-07T18:20:05.739Z,100904.91
2023-02-07T18:22:32.711Z,100892.25
2023-02-07T18:24:59.534Z,100888.50
2023-02-07T18:27:26.487Z,100892.50
2023-02-07T18:29:54.752Z,100892.31
2023-02-07T18:32:21.632Z,100896.03
2023-02-07T18:34:48.537Z,100891.25
2023-02-07T18:37:15.482Z,100891.06
2023-02-07T18:39:42.475Z,100884.81
2023-02-07T18:42:09.314Z,100881.94
2023-02-07T18:44:36.220Z,100890.88
2023-02-07T18:47:04.624Z,100884.63
2023-02-07T18:49:33.276Z,100880.09
2023-02-07T18:52:00.326Z,100891.50
2023-02-07T18:54:27.439Z,100883.41
2023-02-07T18:56:54.566Z,100882.41
2023-02-07T18:59:23.357Z,100884.09
2023-02-07T19:01:53.510Z,100884.53
2023-02-07T19:04:22.412Z,100879.59
2023-02-07T19:06:50.639Z,100873.78
2023-02-07T19:09:19.093Z,100874.44
2023-02-07T19:11:45.958Z,100868.66
2023-02-07T19:14:15.353Z,100871.97
2023-02-07T19:16:43.216Z,100875.34
2023-02-07T19:19:11.279Z,100873.06
2023-02-07T19:21:39.602Z,100877.25
2023-02-07T19:24:09.178Z,100888.72
2023-02-07T19:26:36.242Z,100893.28
2023-02-07T19:29:05.229Z,100890.56
2023-02-07T19:31:32.733Z,100894.94
2023-02-07T19:33:59.840Z,100897.25
2023-02-07T19:36:27.613Z,100895.84
2023-02-07T19:38:55.942Z,100897.13
2023-02-07T19:41:24.079Z,100895.88
2023-02-07T19:43:51.128Z,100888.41
2023-02-07T19:46:19.123Z,100879.91
2023-02-07T19:48:47.225Z,100881.38
2023-02-07T19:51:16.685Z,100880.34
2023-02-07T19:53:45.143Z,100890.94
2023-02-07T19:56:14.061Z,100888.25
2023-02-07T19:58:44.734Z,100880.13
2023-02-07T20:01:12.169Z,100882.44
2023-02-07T20:03:39.576Z,100876.00
2023-02-07T20:06:11.707Z,100880.41
2023-02-07T20:08:40.066Z,100881.03
2023-02-07T20:11:09.561Z,100884.38
2023-02-07T20:13:39.795Z,100878.97
2023-02-07T20:16:09.218Z,100878.31
2023-02-07T20:18:36.139Z,100885.63
2023-02-07T20:21:10.930Z,100883.28
2023-02-07T20:23:39.133Z,100885.34
2023-02-07T20:26:07.432Z,100889.28
2023-02-07T20:28:34.832Z,100875.97
2023-02-07T20:31:06.085Z,100876.16
2023-02-07T20:33:34.024Z,100879.09
2023-02-07T20:36:00.920Z,100874.25
2023-02-07T20:38:27.815Z,100873.81
2023-02-07T20:40:57.379Z,100878.75
2023-02-07T20:43:24.548Z,100877.72
2023-02-07T20:45:51.402Z,100890.44
2023-02-07T20:48:19.630Z,100881.66
2023-02-07T20:50:46.597Z,100884.59
2023-02-07T20:53:13.489Z,100891.41
2023-02-07T20:55:40.381Z,100886.59
2023-02-07T20:58:07.243Z,100888.00
2023-02-07T21:00:34.607Z,100887.94
2023-02-07T21:03:01.570Z,100889.56
2023-02-07T21:05:29.795Z,100893.88
2023-02-07T21:07:56.691Z,100882.13
2023-02-07T21:10:23.753Z,100894.34
2023-02-07T21:12:50.617Z,100889.53
2023-02-07T21:15:17.500Z,100894.88
2023-02-07T21:17:44.923Z,100887.34
2023-02-07T21:20:12.738Z,100891.44
2023-02-07T21:22:41.581Z,100881.44
2023-02-07T21:25:08.605Z,100876.59
2023-02-07T21:27:35.638Z,100878.00
2023-02-07T21:30:02.481Z,100877.94
2023-02-07T21:32:29.430Z,100881.00
2023-02-07T21:34:56.278Z,100866.66
2023-02-07T21:37:24.002Z,100870.41
2023-02-07T21:39:52.227Z,100867.88
2023-02-07T21:42:19.102Z,100880.09
2023-02-07T21:44:45.981Z,100876.75
2023-02-07T21:47:12.891Z,100872.75
2023-02-07T21:49:39.787Z,100866.84
2023-02-07T21:52:06.753Z,100858.31
2023-02-07T21:54:33.647Z,100854.13
2023-02-07T21:57:02.027Z,100847.44
2023-02-07T21:59:29.930Z,100852.84
2023-02-07T22:01:58.140Z,100852.19
2023-02-07T22:04:25.133Z,100847.00
2023-02-07T22:06:52.578Z,100850.06
2023-02-07T22:09:22.053Z,100846.72
2023-02-07T22:11:49.624Z,100850.25
2023-02-07T22:14:18.475Z,100843.38
2023-02-07T22:16:46.513Z,100842.53
2023-02-07T22:19:17.155Z,100839.19
2023-02-07T22:21:44.464Z,100839.19
2023-02-07T22:24:13.599Z,100844.59
2023-02-07T22:26:41.050Z,100849.31
2023-02-07T22:29:09.035Z,100851.22
2023-02-07T22:31:39.820Z,100846.63
2023-02-07T22:34:08.459Z,100849.50
2023-02-07T22:36:38.029Z,100847.41
2023-02-07T22:39:06.588Z,100836.53
2023-02-07T22:41:33.545Z,100851.41
2023-02-07T22:44:03.859Z,100853.81
2023-02-07T22:46:31.261Z,100840.91
2023-02-07T22:48:59.741Z,100842.94
2023-02-07T22:51:29.224Z,100838.13
2023-02-07T22:53:57.646Z,100846.41
2023-02-07T22:56:25.606Z,100836.81
2023-02-07T22:58:52.905Z,100833.59
2023-02-07T23:01:21.956Z,100833.34
2023-02-07T23:03:49.315Z,100833.88
2023-02-07T23:06:18.099Z,100831.59
2023-02-07T23:08:45.528Z,100825.53
2023-02-07T23:11:14.677Z,100818.00
2023-02-07T23:13:42.414Z,100825.06
2023-02-07T23:16:11.486Z,100821.72
2023-02-07T23:18:38.617Z,100823.09
2023-02-07T23:21:08.550Z,100821.78
2023-02-07T23:23:37.464Z,100817.44
2023-02-07T23:26:07.009Z,100810.56
2023-02-07T23:28:34.142Z,100815.31
2023-02-07T23:31:01.210Z,100818.19
2023-02-07T23:33:28.162Z,100810.47
2023-02-07T23:35:55.056Z,100815.00
2023-02-07T23:38:21.921Z,100808.97
2023-02-07T23:40:50.245Z,100810.19
2023-02-07T23:43:17.558Z,100811.41
2023-02-07T23:45:44.599Z,100799.94
2023-02-07T23:48:11.748Z,100810.91
2023-02-07T23:50:38.975Z,100809.41
2023-02-07T23:53:06.726Z,100807.94
2023-02-07T23:55:33.990Z,100790.09
2023-02-07T23:58:02.522Z,100800.22
